sensor_id;sensor_type;location;lat;lon;timestamp;P1;durP1;ratioP1;P2;durP2;ratioP2
57443;SDS011;43289;52.962;6.196;2023-03-01T00:01:21;19.20;;;14.13;;
57443;SDS011;43289;52.962;6.196;2023-03-01T00:03:50;18.92;;;13.18;;
57443;SDS011;43289;52.962;6.196;2023-03-01T00:06:16;25.38;;;14.90;;
57443;SDS011;43289;52.962;6.196;2023-03-01T00:08:42;17.83;;;12.95;;
57443;SDS011;43289;52.962;6.196;2023-03-01T00:13:36;18.75;;;12.85;;
57443;SDS011;43289;52.962;6.196;2023-03-01T00:16:09;19.05;;;14.23;;
57443;SDS011;43289;52.962;6.196;2023-03-01T00:18:37;21.92;;;13.40;;
57443;SDS011;43289;52.962;6.196;2023-03-01T00:21:03;23.63;;;14.70;;
57443;SDS011;43289;52.962;6.196;2023-03-01T00:23:30;19.85;;;13.88;;
57443;SDS011;43289;52.962;6.196;2023-03-01T00:25:56;23.63;;;14.60;;
57443;SDS011;43289;52.962;6.196;2023-03-01T00:28:22;20.90;;;13.20;;
57443;SDS011;43289;52.962;6.196;2023-03-01T00:30:48;22.55;;;15.88;;
57443;SDS011;43289;52.962;6.196;2023-03-01T00:33:14;23.38;;;15.75;;
57443;SDS011;43289;52.962;6.196;2023-03-01T00:35:39;23.83;;;14.60;;
57443;SDS011;43289;52.962;6.196;2023-03-01T00:38:05;20.75;;;14.75;;
57443;SDS011;43289;52.962;6.196;2023-03-01T00:40:33;20.95;;;13.80;;
57443;SDS011;43289;52.962;6.196;2023-03-01T00:43:00;21.20;;;13.57;;
57443;SDS011;43289;52.962;6.196;2023-03-01T00:45:26;19.55;;;13.50;;
57443;SDS011;43289;52.962;6.196;2023-03-01T00:47:52;20.13;;;13.80;;
57443;SDS011;43289;52.962;6.196;2023-03-01T00:50:18;23.70;;;13.60;;
57443;SDS011;43289;52.962;6.196;2023-03-01T00:52:44;33.30;;;15.73;;
57443;SDS011;43289;52.962;6.196;2023-03-01T00:55:10;25.38;;;14.90;;
57443;SDS011;43289;52.962;6.196;2023-03-01T00:57:36;55.03;;;20.30;;
57443;SDS011;43289;52.962;6.196;2023-03-01T01:00:03;34.08;;;17.92;;
57443;SDS011;43289;52.962;6.196;2023-03-01T01:02:29;116.18;;;33.15;;
57443;SDS011;43289;52.962;6.196;2023-03-01T01:04:57;248.77;;;49.50;;
57443;SDS011;43289;52.962;6.196;2023-03-01T01:07:22;307.20;;;60.75;;
57443;SDS011;43289;52.962;6.196;2023-03-01T01:09:48;133.40;;;32.83;;
57443;SDS011;43289;52.962;6.196;2023-03-01T01:12:13;65.13;;;27.98;;
57443;SDS011;43289;52.962;6.196;2023-03-01T01:14:39;185.55;;;40.60;;
57443;SDS011;43289;52.962;6.196;2023-03-01T01:17:04;333.92;;;56.35;;
57443;SDS011;43289;52.962;6.196;2023-03-01T01:19:30;319.05;;;52.08;;
57443;SDS011;43289;52.962;6.196;2023-03-01T01:21:56;176.15;;;35.88;;
57443;SDS011;43289;52.962;6.196;2023-03-01T01:24:21;131.07;;;29.00;;
57443;SDS011;43289;52.962;6.196;2023-03-01T01:26:47;118.03;;;28.00;;
57443;SDS011;43289;52.962;6.196;2023-03-01T01:29:13;332.70;;;65.22;;
57443;SDS011;43289;52.962;6.196;2023-03-01T01:31:39;189.90;;;37.67;;
57443;SDS011;43289;52.962;6.196;2023-03-01T01:34:07;128.10;;;27.45;;
57443;SDS011;43289;52.962;6.196;2023-03-01T01:36:34;236.77;;;48.50;;
57443;SDS011;43289;52.962;6.196;2023-03-01T01:39:00;244.77;;;53.42;;
57443;SDS011;43289;52.962;6.196;2023-03-01T01:41:26;310.23;;;73.40;;
57443;SDS011;43289;52.962;6.196;2023-03-01T01:46:53;225.23;;;50.20;;
57443;SDS011;43289;52.962;6.196;2023-03-01T01:51:55;326.50;;;66.75;;
57443;SDS011;43289;52.962;6.196;2023-03-01T01:54:38;459.13;;;94.10;;
57443;SDS011;43289;52.962;6.196;2023-03-01T01:57:18;364.52;;;72.85;;
57443;SDS011;43289;52.962;6.196;2023-03-01T02:00:09;321.90;;;67.68;;
57443;SDS011;43289;52.962;6.196;2023-03-01T02:02:40;384.08;;;86.10;;
57443;SDS011;43289;52.962;6.196;2023-03-01T02:05:12;269.75;;;62.17;;
57443;SDS011;43289;52.962;6.196;2023-03-01T02:07:45;314.77;;;75.00;;
57443;SDS011;43289;52.962;6.196;2023-03-01T02:10:12;272.35;;;62.67;;
57443;SDS011;43289;52.962;6.196;2023-03-01T02:12:38;271.38;;;60.88;;
57443;SDS011;43289;52.962;6.196;2023-03-01T02:15:04;165.30;;;39.53;;
57443;SDS011;43289;52.962;6.196;2023-03-01T02:17:30;217.90;;;49.97;;
57443;SDS011;43289;52.962;6.196;2023-03-01T02:20:00;188.32;;;44.95;;
57443;SDS011;43289;52.962;6.196;2023-03-01T02:22:37;151.98;;;35.58;;
57443;SDS011;43289;52.962;6.196;2023-03-01T02:25:07;110.03;;;29.08;;
57443;SDS011;43289;52.962;6.196;2023-03-01T02:30:23;154.68;;;35.85;;
57443;SDS011;43289;52.962;6.196;2023-03-01T02:32:50;124.43;;;32.30;;
57443;SDS011;43289;52.962;6.196;2023-03-01T02:35:17;61.90;;;21.45;;
57443;SDS011;43289;52.962;6.196;2023-03-01T02:37:44;254.70;;;62.78;;
57443;SDS011;43289;52.962;6.196;2023-03-01T02:40:11;187.98;;;44.45;;
57443;SDS011;43289;52.962;6.196;2023-03-01T02:42:50;223.65;;;42.08;;
57443;SDS011;43289;52.962;6.196;2023-03-01T02:45:19;237.35;;;58.28;;
57443;SDS011;43289;52.962;6.196;2023-03-01T02:47:45;274.23;;;61.50;;
57443;SDS011;43289;52.962;6.196;2023-03-01T02:50:12;137.75;;;41.30;;
57443;SDS011;43289;52.962;6.196;2023-03-01T02:53:11;94.22;;;25.02;;
57443;SDS011;43289;52.962;6.196;2023-03-01T02:55:46;57.95;;;20.20;;
57443;SDS011;43289;52.962;6.196;2023-03-01T02:58:12;109.18;;;30.98;;
57443;SDS011;43289;52.962;6.196;2023-03-01T03:00:38;120.78;;;27.55;;
57443;SDS011;43289;52.962;6.196;2023-03-01T03:03:10;100.85;;;24.35;;
57443;SDS011;43289;52.962;6.196;2023-03-01T03:05:38;77.07;;;18.92;;
57443;SDS011;43289;52.962;6.196;2023-03-01T03:08:04;77.28;;;19.27;;
57443;SDS011;43289;52.962;6.196;2023-03-01T03:10:31;84.60;;;17.35;;
57443;SDS011;43289;52.962;6.196;2023-03-01T03:13:02;69.82;;;18.00;;
57443;SDS011;43289;52.962;6.196;2023-03-01T03:15:29;96.60;;;19.23;;
57443;SDS011;43289;52.962;6.196;2023-03-01T03:17:55;38.70;;;14.38;;
57443;SDS011;43289;52.962;6.196;2023-03-01T03:20:23;58.78;;;20.00;;
57443;SDS011;43289;52.962;6.196;2023-03-01T03:22:52;70.50;;;13.60;;
57443;SDS011;43289;52.962;6.196;2023-03-01T03:25:19;39.58;;;13.10;;
57443;SDS011;43289;52.962;6.196;2023-03-01T03:27:46;43.78;;;17.73;;
57443;SDS011;43289;52.962;6.196;2023-03-01T03:30:17;40.50;;;12.45;;
57443;SDS011;43289;52.962;6.196;2023-03-01T03:32:46;86.18;;;24.30;;
57443;SDS011;43289;52.962;6.196;2023-03-01T03:35:17;36.70;;;10.95;;
57443;SDS011;43289;52.962;6.196;2023-03-01T03:37:44;37.40;;;13.13;;
57443;SDS011;43289;52.962;6.196;2023-03-01T03:40:39;29.67;;;14.40;;
57443;SDS011;43289;52.962;6.196;2023-03-01T03:43:06;33.78;;;12.70;;
57443;SDS011;43289;52.962;6.196;2023-03-01T03:45:33;59.53;;;17.05;;
57443;SDS011;43289;52.962;6.196;2023-03-01T03:48:00;48.92;;;18.00;;
57443;SDS011;43289;52.962;6.196;2023-03-01T03:50:27;26.95;;;12.93;;
57443;SDS011;43289;52.962;6.196;2023-03-01T03:52:53;22.63;;;11.45;;
57443;SDS011;43289;52.962;6.196;2023-03-01T03:55:21;40.80;;;11.43;;
57443;SDS011;43289;52.962;6.196;2023-03-01T03:57:47;30.40;;;12.43;;
57443;SDS011;43289;52.962;6.196;2023-03-01T04:00:17;60.75;;;19.42;;
57443;SDS011;43289;52.962;6.196;2023-03-01T04:02:49;29.58;;;12.70;;
57443;SDS011;43289;52.962;6.196;2023-03-01T04:05:16;45.25;;;15.88;;
57443;SDS011;43289;52.962;6.196;2023-03-01T04:07:44;43.70;;;15.95;;
57443;SDS011;43289;52.962;6.196;2023-03-01T04:10:14;48.67;;;14.45;;
57443;SDS011;43289;52.962;6.196;2023-03-01T04:12:41;40.65;;;13.93;;
57443;SDS011;43289;52.962;6.196;2023-03-01T04:15:10;28.50;;;11.63;;
57443;SDS011;43289;52.962;6.196;2023-03-01T04:17:40;35.47;;;13.20;;
57443;SDS011;43289;52.962;6.196;2023-03-01T04:20:16;36.10;;;13.75;;
57443;SDS011;43289;52.962;6.196;2023-03-01T04:22:49;66.13;;;14.48;;
57443;SDS011;43289;52.962;6.196;2023-03-01T04:25:49;46.92;;;13.13;;
57443;SDS011;43289;52.962;6.196;2023-03-01T04:30:50;34.05;;;13.02;;
57443;SDS011;43289;52.962;6.196;2023-03-01T04:33:16;43.45;;;15.18;;
57443;SDS011;43289;52.962;6.196;2023-03-01T04:35:42;44.22;;;14.30;;
57443;SDS011;43289;52.962;6.196;2023-03-01T04:38:08;29.45;;;12.23;;
57443;SDS011;43289;52.962;6.196;2023-03-01T04:40:34;45.33;;;13.57;;
57443;SDS011;43289;52.962;6.196;2023-03-01T04:43:00;31.83;;;12.63;;
57443;SDS011;43289;52.962;6.196;2023-03-01T04:45:27;32.75;;;11.23;;
57443;SDS011;43289;52.962;6.196;2023-03-01T04:47:52;31.92;;;12.38;;
57443;SDS011;43289;52.962;6.196;2023-03-01T04:50:19;35.08;;;14.52;;
57443;SDS011;43289;52.962;6.196;2023-03-01T04:52:45;32.70;;;12.93;;
57443;SDS011;43289;52.962;6.196;2023-03-01T04:55:12;19.10;;;11.80;;
57443;SDS011;43289;52.962;6.196;2023-03-01T04:57:38;18.48;;;11.60;;
57443;SDS011;43289;52.962;6.196;2023-03-01T05:00:05;15.32;;;10.73;;
57443;SDS011;43289;52.962;6.196;2023-03-01T05:02:45;16.00;;;11.40;;
57443;SDS011;43289;52.962;6.196;2023-03-01T05:05:18;14.23;;;11.43;;
57443;SDS011;43289;52.962;6.196;2023-03-01T05:07:53;15.32;;;11.10;;
57443;SDS011;43289;52.962;6.196;2023-03-01T05:10:26;15.27;;;11.00;;
57443;SDS011;43289;52.962;6.196;2023-03-01T05:12:56;20.02;;;11.98;;
57443;SDS011;43289;52.962;6.196;2023-03-01T05:15:23;15.90;;;11.40;;
57443;SDS011;43289;52.962;6.196;2023-03-01T05:17:53;18.52;;;12.65;;
57443;SDS011;43289;52.962;6.196;2023-03-01T05:20:20;18.88;;;13.35;;
57443;SDS011;43289;52.962;6.196;2023-03-01T05:22:48;21.90;;;12.90;;
57443;SDS011;43289;52.962;6.196;2023-03-01T05:25:14;23.90;;;12.93;;
57443;SDS011;43289;52.962;6.196;2023-03-01T05:27:39;18.17;;;11.43;;
57443;SDS011;43289;52.962;6.196;2023-03-01T05:30:05;13.98;;;10.52;;
57443;SDS011;43289;52.962;6.196;2023-03-01T05:32:45;37.05;;;13.75;;
57443;SDS011;43289;52.962;6.196;2023-03-01T05:35:12;23.40;;;13.23;;
57443;SDS011;43289;52.962;6.196;2023-03-01T05:37:43;43.00;;;16.08;;
57443;SDS011;43289;52.962;6.196;2023-03-01T05:40:11;31.92;;;14.02;;
57443;SDS011;43289;52.962;6.196;2023-03-01T05:42:45;18.38;;;12.75;;
57443;SDS011;43289;52.962;6.196;2023-03-01T05:45:17;17.23;;;12.18;;
57443;SDS011;43289;52.962;6.196;2023-03-01T05:47:43;24.27;;;13.75;;
57443;SDS011;43289;52.962;6.196;2023-03-01T05:50:14;18.13;;;12.55;;
57443;SDS011;43289;52.962;6.196;2023-03-01T05:52:44;16.40;;;11.85;;
57443;SDS011;43289;52.962;6.196;2023-03-01T05:55:15;16.65;;;11.63;;
57443;SDS011;43289;52.962;6.196;2023-03-01T05:57:45;17.95;;;12.23;;
57443;SDS011;43289;52.962;6.196;2023-03-01T06:00:12;17.25;;;12.30;;
57443;SDS011;43289;52.962;6.196;2023-03-01T06:02:38;15.82;;;10.95;;
57443;SDS011;43289;52.962;6.196;2023-03-01T06:05:05;17.45;;;12.68;;
57443;SDS011;43289;52.962;6.196;2023-03-01T06:07:32;15.85;;;10.68;;
57443;SDS011;43289;52.962;6.196;2023-03-01T06:09:58;16.08;;;11.80;;
57443;SDS011;43289;52.962;6.196;2023-03-01T06:12:24;17.73;;;11.85;;
57443;SDS011;43289;52.962;6.196;2023-03-01T06:14:50;15.02;;;11.23;;
57443;SDS011;43289;52.962;6.196;2023-03-01T06:17:15;16.13;;;11.63;;
57443;SDS011;43289;52.962;6.196;2023-03-01T06:19:41;14.80;;;11.05;;
57443;SDS011;43289;52.962;6.196;2023-03-01T06:22:06;17.15;;;11.07;;
57443;SDS011;43289;52.962;6.196;2023-03-01T06:24:33;16.92;;;10.55;;
57443;SDS011;43289;52.962;6.196;2023-03-01T06:26:58;13.55;;;10.45;;
57443;SDS011;43289;52.962;6.196;2023-03-01T06:29:24;15.10;;;10.38;;
57443;SDS011;43289;52.962;6.196;2023-03-01T06:31:50;16.20;;;10.43;;
57443;SDS011;43289;52.962;6.196;2023-03-01T06:34:15;14.50;;;9.77;;
57443;SDS011;43289;52.962;6.196;2023-03-01T06:36:41;14.25;;;9.93;;
57443;SDS011;43289;52.962;6.196;2023-03-01T06:39:07;14.07;;;10.40;;
57443;SDS011;43289;52.962;6.196;2023-03-01T06:41:32;16.55;;;11.35;;
57443;SDS011;43289;52.962;6.196;2023-03-01T06:43:59;14.38;;;11.23;;
57443;SDS011;43289;52.962;6.196;2023-03-01T06:46:25;13.55;;;10.30;;
57443;SDS011;43289;52.962;6.196;2023-03-01T06:48:51;14.30;;;10.10;;
57443;SDS011;43289;52.962;6.196;2023-03-01T06:51:16;14.25;;;10.07;;
57443;SDS011;43289;52.962;6.196;2023-03-01T06:53:42;12.77;;;9.32;;
57443;SDS011;43289;52.962;6.196;2023-03-01T06:56:07;12.35;;;9.88;;
57443;SDS011;43289;52.962;6.196;2023-03-01T06:58:33;12.98;;;9.90;;
57443;SDS011;43289;52.962;6.196;2023-03-01T07:00:59;12.68;;;9.20;;
57443;SDS011;43289;52.962;6.196;2023-03-01T07:03:24;12.23;;;8.50;;
57443;SDS011;43289;52.962;6.196;2023-03-01T07:05:50;14.40;;;9.25;;
57443;SDS011;43289;52.962;6.196;2023-03-01T07:08:17;12.18;;;9.13;;
57443;SDS011;43289;52.962;6.196;2023-03-01T07:10:44;16.08;;;9.73;;
57443;SDS011;43289;52.962;6.196;2023-03-01T07:13:10;11.48;;;8.60;;
57443;SDS011;43289;52.962;6.196;2023-03-01T07:15:36;14.73;;;9.57;;
57443;SDS011;43289;52.962;6.196;2023-03-01T07:18:01;13.77;;;9.15;;
57443;SDS011;43289;52.962;6.196;2023-03-01T07:20:27;13.82;;;10.07;;
57443;SDS011;43289;52.962;6.196;2023-03-01T07:22:53;17.52;;;11.18;;
57443;SDS011;43289;52.962;6.196;2023-03-01T07:25:20;16.15;;;11.63;;
57443;SDS011;43289;52.962;6.196;2023-03-01T07:27:49;13.77;;;9.77;;
57443;SDS011;43289;52.962;6.196;2023-03-01T07:30:16;15.95;;;10.25;;
57443;SDS011;43289;52.962;6.196;2023-03-01T07:32:42;15.45;;;10.75;;
57443;SDS011;43289;52.962;6.196;2023-03-01T07:35:11;16.63;;;11.25;;
57443;SDS011;43289;52.962;6.196;2023-03-01T07:37:37;15.23;;;11.27;;
57443;SDS011;43289;52.962;6.196;2023-03-01T07:40:02;17.70;;;11.50;;
57443;SDS011;43289;52.962;6.196;2023-03-01T07:42:28;16.15;;;11.13;;
57443;SDS011;43289;52.962;6.196;2023-03-01T07:44:54;20.13;;;11.80;;
57443;SDS011;43289;52.962;6.196;2023-03-01T07:47:20;17.52;;;12.38;;
57443;SDS011;43289;52.962;6.196;2023-03-01T07:49:46;17.88;;;12.68;;
57443;SDS011;43289;52.962;6.196;2023-03-01T07:52:12;19.05;;;13.30;;
57443;SDS011;43289;52.962;6.196;2023-03-01T07:54:38;19.60;;;14.02;;
57443;SDS011;43289;52.962;6.196;2023-03-01T07:57:04;22.30;;;14.98;;
57443;SDS011;43289;52.962;6.196;2023-03-01T07:59:30;23.33;;;15.77;;
57443;SDS011;43289;52.962;6.196;2023-03-01T08:01:56;23.52;;;16.17;;
57443;SDS011;43289;52.962;6.196;2023-03-01T08:04:22;24.95;;;16.48;;
57443;SDS011;43289;52.962;6.196;2023-03-01T08:06:50;23.75;;;16.52;;
57443;SDS011;43289;52.962;6.196;2023-03-01T08:09:16;21.80;;;15.45;;
57443;SDS011;43289;52.962;6.196;2023-03-01T08:11:41;23.15;;;17.50;;
57443;SDS011;43289;52.962;6.196;2023-03-01T08:14:07;23.70;;;17.23;;
57443;SDS011;43289;52.962;6.196;2023-03-01T08:16:32;27.63;;;18.52;;
57443;SDS011;43289;52.962;6.196;2023-03-01T08:19:18;24.42;;;18.25;;
57443;SDS011;43289;52.962;6.196;2023-03-01T08:21:43;28.35;;;18.83;;
57443;SDS011;43289;52.962;6.196;2023-03-01T08:24:09;32.50;;;20.35;;
57443;SDS011;43289;52.962;6.196;2023-03-01T08:26:37;30.98;;;21.20;;
57443;SDS011;43289;52.962;6.196;2023-03-01T08:29:03;25.83;;;18.05;;
57443;SDS011;43289;52.962;6.196;2023-03-01T08:31:33;29.30;;;20.65;;
57443;SDS011;43289;52.962;6.196;2023-03-01T08:34:01;31.85;;;20.52;;
57443;SDS011;43289;52.962;6.196;2023-03-01T08:36:30;31.75;;;20.65;;
57443;SDS011;43289;52.962;6.196;2023-03-01T08:39:05;31.58;;;21.17;;
57443;SDS011;43289;52.962;6.196;2023-03-01T08:41:32;31.60;;;21.38;;
57443;SDS011;43289;52.962;6.196;2023-03-01T08:43:58;33.55;;;21.23;;
57443;SDS011;43289;52.962;6.196;2023-03-01T08:46:27;34.75;;;22.60;;
57443;SDS011;43289;52.962;6.196;2023-03-01T08:48:55;34.25;;;21.67;;
57443;SDS011;43289;52.962;6.196;2023-03-01T08:51:21;35.92;;;23.08;;
57443;SDS011;43289;52.962;6.196;2023-03-01T08:53:48;35.75;;;22.92;;
57443;SDS011;43289;52.962;6.196;2023-03-01T08:56:14;36.33;;;23.17;;
57443;SDS011;43289;52.962;6.196;2023-03-01T08:58:43;37.67;;;23.90;;
57443;SDS011;43289;52.962;6.196;2023-03-01T09:01:10;36.22;;;23.27;;
57443;SDS011;43289;52.962;6.196;2023-03-01T09:03:37;32.85;;;22.13;;
57443;SDS011;43289;52.962;6.196;2023-03-01T09:06:03;33.30;;;21.73;;
57443;SDS011;43289;52.962;6.196;2023-03-01T09:08:31;36.38;;;23.05;;
57443;SDS011;43289;52.962;6.196;2023-03-01T09:11:03;34.08;;;22.70;;
57443;SDS011;43289;52.962;6.196;2023-03-01T09:13:30;34.95;;;23.75;;
57443;SDS011;43289;52.962;6.196;2023-03-01T09:15:59;34.25;;;21.73;;
57443;SDS011;43289;52.962;6.196;2023-03-01T09:18:26;30.55;;;20.75;;
57443;SDS011;43289;52.962;6.196;2023-03-01T09:20:52;33.95;;;21.27;;
57443;SDS011;43289;52.962;6.196;2023-03-01T09:23:20;28.90;;;19.20;;
57443;SDS011;43289;52.962;6.196;2023-03-01T09:25:46;28.75;;;18.50;;
57443;SDS011;43289;52.962;6.196;2023-03-01T09:28:11;25.60;;;16.90;;
57443;SDS011;43289;52.962;6.196;2023-03-01T09:30:37;24.60;;;16.50;;
57443;SDS011;43289;52.962;6.196;2023-03-01T09:33:03;31.42;;;16.50;;
57443;SDS011;43289;52.962;6.196;2023-03-01T09:35:28;26.27;;;16.55;;
57443;SDS011;43289;52.962;6.196;2023-03-01T09:37:54;27.38;;;17.08;;
57443;SDS011;43289;52.962;6.196;2023-03-01T09:40:20;27.65;;;17.80;;
57443;SDS011;43289;52.962;6.196;2023-03-01T09:45:35;27.30;;;16.95;;
57443;SDS011;43289;52.962;6.196;2023-03-01T09:48:03;25.38;;;16.75;;
57443;SDS011;43289;52.962;6.196;2023-03-01T09:50:40;25.88;;;16.92;;
57443;SDS011;43289;52.962;6.196;2023-03-01T09:53:13;23.23;;;15.07;;
57443;SDS011;43289;52.962;6.196;2023-03-01T09:55:46;23.75;;;15.93;;
57443;SDS011;43289;52.962;6.196;2023-03-01T10:04:02;24.65;;;14.35;;
57443;SDS011;43289;52.962;6.196;2023-03-01T10:06:36;18.95;;;13.35;;
57443;SDS011;43289;52.962;6.196;2023-03-01T10:09:21;20.83;;;14.10;;
57443;SDS011;43289;52.962;6.196;2023-03-01T10:11:48;19.50;;;12.57;;
57443;SDS011;43289;52.962;6.196;2023-03-01T10:16:57;15.57;;;11.80;;
57443;SDS011;43289;52.962;6.196;2023-03-01T10:19:38;19.95;;;13.13;;
57443;SDS011;43289;52.962;6.196;2023-03-01T10:22:16;16.60;;;11.50;;
57443;SDS011;43289;52.962;6.196;2023-03-01T10:24:52;17.70;;;10.93;;
57443;SDS011;43289;52.962;6.196;2023-03-01T10:27:24;18.85;;;11.93;;
57443;SDS011;43289;52.962;6.196;2023-03-01T10:32:43;18.25;;;12.82;;
57443;SDS011;43289;52.962;6.196;2023-03-01T10:35:20;15.98;;;11.07;;
57443;SDS011;43289;52.962;6.196;2023-03-01T10:37:57;16.20;;;10.65;;
57443;SDS011;43289;52.962;6.196;2023-03-01T10:40:29;15.73;;;11.32;;
57443;SDS011;43289;52.962;6.196;2023-03-01T10:42:57;16.70;;;11.82;;
57443;SDS011;43289;52.962;6.196;2023-03-01T10:50:41;16.10;;;11.20;;
57443;SDS011;43289;52.962;6.196;2023-03-01T10:53:20;13.88;;;9.90;;
57443;SDS011;43289;52.962;6.196;2023-03-01T10:56:08;14.95;;;10.60;;
57443;SDS011;43289;52.962;6.196;2023-03-01T10:58:36;13.57;;;10.43;;
57443;SDS011;43289;52.962;6.196;2023-03-01T11:03:37;14.07;;;9.88;;
57443;SDS011;43289;52.962;6.196;2023-03-01T11:06:05;13.43;;;9.00;;
57443;SDS011;43289;52.962;6.196;2023-03-01T11:11:13;12.38;;;9.15;;
57443;SDS011;43289;52.962;6.196;2023-03-01T11:16:24;13.02;;;10.00;;
57443;SDS011;43289;52.962;6.196;2023-03-01T11:18:57;14.05;;;9.70;;
57443;SDS011;43289;52.962;6.196;2023-03-01T11:22:01;13.65;;;9.85;;
57443;SDS011;43289;52.962;6.196;2023-03-01T11:24:39;14.82;;;9.10;;
57443;SDS011;43289;52.962;6.196;2023-03-01T11:27:15;15.75;;;9.80;;
57443;SDS011;43289;52.962;6.196;2023-03-01T11:29:45;14.07;;;9.77;;
57443;SDS011;43289;52.962;6.196;2023-03-01T11:32:19;15.95;;;10.15;;
57443;SDS011;43289;52.962;6.196;2023-03-01T11:34:50;14.90;;;10.70;;
57443;SDS011;43289;52.962;6.196;2023-03-01T11:37:32;12.82;;;9.30;;
57443;SDS011;43289;52.962;6.196;2023-03-01T11:40:29;14.10;;;9.90;;
57443;SDS011;43289;52.962;6.196;2023-03-01T11:43:11;13.40;;;9.50;;
57443;SDS011;43289;52.962;6.196;2023-03-01T12:08:39;13.07;;;10.25;;
57443;SDS011;43289;52.962;6.196;2023-03-01T12:16:40;16.55;;;11.70;;
57443;SDS011;43289;52.962;6.196;2023-03-01T12:28:02;13.85;;;9.57;;
57443;SDS011;43289;52.962;6.196;2023-03-01T12:30:45;12.50;;;9.77;;
57443;SDS011;43289;52.962;6.196;2023-03-01T12:44:27;13.00;;;9.50;;
57443;SDS011;43289;52.962;6.196;2023-03-01T12:49:50;13.35;;;9.30;;
57443;SDS011;43289;52.962;6.196;2023-03-01T12:52:38;11.77;;;8.30;;
57443;SDS011;43289;52.962;6.196;2023-03-01T12:55:21;12.50;;;8.93;;
57443;SDS011;43289;52.962;6.196;2023-03-01T13:00:51;13.02;;;8.85;;
57443;SDS011;43289;52.962;6.196;2023-03-01T13:03:28;13.07;;;9.70;;
57443;SDS011;43289;52.962;6.196;2023-03-01T13:08:56;13.23;;;10.02;;
57443;SDS011;43289;52.962;6.196;2023-03-01T13:11:43;13.75;;;10.38;;
57443;SDS011;43289;52.962;6.196;2023-03-01T13:16:50;15.15;;;9.98;;
57443;SDS011;43289;52.962;6.196;2023-03-01T13:19:18;14.27;;;10.18;;
57443;SDS011;43289;52.962;6.196;2023-03-01T13:21:49;14.20;;;10.55;;
57443;SDS011;43289;52.962;6.196;2023-03-01T13:24:26;13.93;;;10.25;;
57443;SDS011;43289;52.962;6.196;2023-03-01T13:32:18;16.52;;;11.85;;
57443;SDS011;43289;52.962;6.196;2023-03-01T13:34:46;15.50;;;11.45;;
57443;SDS011;43289;52.962;6.196;2023-03-01T13:37:24;15.55;;;10.85;;
57443;SDS011;43289;52.962;6.196;2023-03-01T13:39:51;13.80;;;9.45;;
57443;SDS011;43289;52.962;6.196;2023-03-01T13:45:03;11.77;;;9.43;;
57443;SDS011;43289;52.962;6.196;2023-03-01T13:47:38;14.88;;;9.98;;
57443;SDS011;43289;52.962;6.196;2023-03-01T13:50:06;15.45;;;10.75;;
57443;SDS011;43289;52.962;6.196;2023-03-01T13:52:42;20.77;;;11.40;;
57443;SDS011;43289;52.962;6.196;2023-03-01T13:57:39;13.20;;;9.85;;
57443;SDS011;43289;52.962;6.196;2023-03-01T14:00:07;18.23;;;11.90;;
57443;SDS011;43289;52.962;6.196;2023-03-01T14:05:30;14.32;;;10.57;;
57443;SDS011;43289;52.962;6.196;2023-03-01T14:07:57;13.30;;;10.05;;
57443;SDS011;43289;52.962;6.196;2023-03-01T14:10:22;16.13;;;11.68;;
57443;SDS011;43289;52.962;6.196;2023-03-01T14:21:22;15.93;;;11.23;;
57443;SDS011;43289;52.962;6.196;2023-03-01T14:23:50;19.33;;;12.57;;
57443;SDS011;43289;52.962;6.196;2023-03-01T14:26:20;18.20;;;11.15;;
57443;SDS011;43289;52.962;6.196;2023-03-01T14:28:47;15.65;;;10.63;;
57443;SDS011;43289;52.962;6.196;2023-03-01T14:31:34;16.42;;;10.35;;
57443;SDS011;43289;52.962;6.196;2023-03-01T14:34:02;16.88;;;10.90;;
57443;SDS011;43289;52.962;6.196;2023-03-01T14:36:29;15.40;;;10.75;;
57443;SDS011;43289;52.962;6.196;2023-03-01T14:38:57;16.92;;;12.02;;
57443;SDS011;43289;52.962;6.196;2023-03-01T14:41:30;16.88;;;10.90;;
57443;SDS011;43289;52.962;6.196;2023-03-01T14:44:00;15.32;;;10.35;;
57443;SDS011;43289;52.962;6.196;2023-03-01T14:46:38;15.48;;;11.18;;
57443;SDS011;43289;52.962;6.196;2023-03-01T14:51:43;17.50;;;11.60;;
57443;SDS011;43289;52.962;6.196;2023-03-01T14:57:18;16.58;;;11.02;;
57443;SDS011;43289;52.962;6.196;2023-03-01T14:59:49;17.20;;;11.65;;
57443;SDS011;43289;52.962;6.196;2023-03-01T15:02:36;16.17;;;10.60;;
57443;SDS011;43289;52.962;6.196;2023-03-01T15:05:03;16.33;;;10.93;;
57443;SDS011;43289;52.962;6.196;2023-03-01T15:07:30;15.45;;;10.65;;
57443;SDS011;43289;52.962;6.196;2023-03-01T15:09:59;15.20;;;10.90;;
57443;SDS011;43289;52.962;6.196;2023-03-01T15:14:50;16.13;;;10.35;;
57443;SDS011;43289;52.962;6.196;2023-03-01T15:20:13;16.60;;;10.50;;
57443;SDS011;43289;52.962;6.196;2023-03-01T15:22:45;14.10;;;10.23;;
57443;SDS011;43289;52.962;6.196;2023-03-01T15:25:16;12.77;;;9.80;;
57443;SDS011;43289;52.962;6.196;2023-03-01T15:27:45;13.77;;;9.80;;
57443;SDS011;43289;52.962;6.196;2023-03-01T15:30:18;14.85;;;10.70;;
57443;SDS011;43289;52.962;6.196;2023-03-01T15:35:46;16.38;;;11.23;;
57443;SDS011;43289;52.962;6.196;2023-03-01T15:41:19;18.00;;;9.93;;
57443;SDS011;43289;52.962;6.196;2023-03-01T15:43:48;15.82;;;10.60;;
57443;SDS011;43289;52.962;6.196;2023-03-01T15:48:47;15.50;;;11.10;;
57443;SDS011;43289;52.962;6.196;2023-03-01T15:51:17;15.55;;;10.43;;
57443;SDS011;43289;52.962;6.196;2023-03-01T15:53:49;16.15;;;11.48;;
57443;SDS011;43289;52.962;6.196;2023-03-01T15:56:17;14.85;;;10.65;;
57443;SDS011;43289;52.962;6.196;2023-03-01T15:58:44;17.30;;;11.20;;
57443;SDS011;43289;52.962;6.196;2023-03-01T16:01:13;15.85;;;11.57;;
57443;SDS011;43289;52.962;6.196;2023-03-01T16:03:41;18.80;;;12.00;;
57443;SDS011;43289;52.962;6.196;2023-03-01T16:06:08;16.05;;;10.90;;
57443;SDS011;43289;52.962;6.196;2023-03-01T16:08:37;16.30;;;11.48;;
57443;SDS011;43289;52.962;6.196;2023-03-01T16:11:04;19.88;;;12.10;;
57443;SDS011;43289;52.962;6.196;2023-03-01T16:13:31;17.88;;;12.68;;
57443;SDS011;43289;52.962;6.196;2023-03-01T16:15:57;18.35;;;12.23;;
57443;SDS011;43289;52.962;6.196;2023-03-01T16:18:23;19.45;;;13.27;;
57443;SDS011;43289;52.962;6.196;2023-03-01T16:20:49;17.88;;;13.40;;
57443;SDS011;43289;52.962;6.196;2023-03-01T16:23:15;19.10;;;13.82;;
57443;SDS011;43289;52.962;6.196;2023-03-01T16:25:40;18.55;;;12.93;;
57443;SDS011;43289;52.962;6.196;2023-03-01T16:28:06;19.90;;;14.30;;
57443;SDS011;43289;52.962;6.196;2023-03-01T16:30:33;19.23;;;13.95;;
57443;SDS011;43289;52.962;6.196;2023-03-01T16:33:00;22.05;;;13.20;;
57443;SDS011;43289;52.962;6.196;2023-03-01T16:35:26;21.20;;;13.57;;
57443;SDS011;43289;52.962;6.196;2023-03-01T16:37:52;17.92;;;12.70;;
57443;SDS011;43289;52.962;6.196;2023-03-01T16:40:23;18.77;;;14.23;;
57443;SDS011;43289;52.962;6.196;2023-03-01T16:42:51;20.88;;;13.65;;
57443;SDS011;43289;52.962;6.196;2023-03-01T16:45:34;21.15;;;14.85;;
57443;SDS011;43289;52.962;6.196;2023-03-01T16:48:01;20.48;;;14.50;;
57443;SDS011;43289;52.962;6.196;2023-03-01T16:50:27;20.80;;;13.98;;
57443;SDS011;43289;52.962;6.196;2023-03-01T16:55:39;23.45;;;14.10;;
57443;SDS011;43289;52.962;6.196;2023-03-01T16:58:10;20.23;;;13.05;;